Time;durP1;ratioP1;P1;durP2;ratioP2;P2;SDS_P1;SDS_P2;PMS_P1;PMS_P2;Temp;Humidity;BMP_temperature;BMP_pressure;BME280_temperature;BME280_humidity;BME280_pressure;Samples;Min_cycle;Max_cycle;Signal;HPM_P1;HPM_P2
2022/04/29 00:02:12;;;;;;;1.65;0.80;;;;;;;17.59;57.20;97537.31;10326704;28;20285;-21
2022/04/29 00:07:12;;;;;;;1.17;1.00;;;;;;;17.57;57.03;97523.78;10326579;28;20068;-23
2022/04/29 00:12:13;;;;;;;1.20;1.10;;;;;;;17.56;57.01;97520.38;10346639;28;20049;-23
2022/04/29 00:17:13;;;;;;;1.20;0.82;;;;;;;17.57;57.12;97518.72;10367401;28;20034;-22
2022/04/29 00:22:14;;;;;;;1.02;0.95;;;;;;;17.55;57.11;97511.06;10338860;28;20113;-23
2022/04/29 00:27:14;;;;;;;0.97;0.80;;;;;;;17.56;56.73;97506.88;10347381;28;20507;-22
2022/04/29 00:32:15;;;;;;;1.43;0.70;;;;;;;17.55;56.81;97495.03;10366727;28;20052;-22
2022/04/29 00:37:17;;;;;;;0.63;0.63;;;;;;;17.56;56.81;97502.66;10336480;28;20289;-21
2022/04/29 00:42:23;;;;;;;1.50;0.95;;;;;;;17.59;58.55;97481.59;10326060;28;20045;-22
2022/04/29 00:47:23;;;;;;;1.67;1.08;;;;;;;17.64;58.76;97490.09;10330140;28;20474;-23
2022/04/29 00:52:24;;;;;;;1.48;1.00;;;;;;;17.64;58.68;97472.38;10361418;28;20052;-23
2022/04/29 00:57:30;;;;;;;1.00;0.90;;;;;;;17.59;57.99;97474.84;10348782;28;20031;-22
2022/04/29 01:02:31;;;;;;;0.70;0.70;;;;;;;17.57;57.00;97483.25;10332467;28;20085;-22
2022/04/29 01:07:33;;;;;;;1.00;0.90;;;;;;;17.57;56.97;97488.31;10333210;28;20093;-23
2022/04/29 01:12:36;;;;;;;0.70;0.70;;;;;;;17.55;56.81;97473.09;10331619;28;20595;-23
2022/04/29 01:17:37;;;;;;;1.05;0.95;;;;;;;17.56;56.92;97473.97;10331221;28;20029;-23
2022/04/29 01:22:38;;;;;;;0.73;0.70;;;;;;;17.54;56.94;97460.41;10330408;28;20041;-23
2022/04/29 01:27:39;;;;;;;0.60;0.60;;;;;;;17.55;56.67;97462.09;10331904;28;20041;-22
2022/04/29 01:32:40;;;;;;;1.70;1.00;;;;;;;17.56;56.86;97448.66;10330706;28;20038;-23
2022/04/29 01:37:44;;;;;;;0.82;0.82;;;;;;;17.56;56.55;97448.66;10331358;28;20101;-22
2022/04/29 01:42:45;;;;;;;1.17;0.80;;;;;;;17.49;56.72;97434.19;10330701;28;20034;-21
2022/04/29 01:47:45;;;;;;;1.10;0.90;;;;;;;17.60;58.79;97440.25;10330511;28;20412;-22
2022/04/29 01:53:02;;;;;;;3.05;1.00;;;;;;;17.63;58.56;97440.28;10329895;28;20523;-22
2022/04/29 01:58:03;;;;;;;2.50;0.90;;;;;;;17.51;58.41;97423.22;10328043;28;20030;-23
2022/04/29 02:03:04;;;;;;;1.25;1.10;;;;;;;17.59;57.87;97439.38;10335022;28;20034;-23
2022/04/29 02:08:05;;;;;;;0.73;0.60;;;;;;;17.51;56.84;97422.41;10369494;28;20128;-21
2022/04/29 02:13:05;;;;;;;1.05;0.95;;;;;;;17.57;56.91;97432.63;10339967;28;20336;-22
2022/04/29 02:18:20;;;;;;;1.60;1.13;;;;;;;17.56;57.02;97426.69;10328711;28;20473;-22
2022/04/29 02:23:21;;;;;;;0.93;0.83;;;;;;;17.56;57.25;97435.97;10327969;28;20039;-23
2022/04/29 02:28:22;;;;;;;1.23;1.00;;;;;;;17.56;56.83;97430.91;10328006;28;20038;-22
2022/04/29 02:33:23;;;;;;;1.00;0.98;;;;;;;17.56;57.60;97431.75;10327431;28;20409;-22
2022/04/29 02:38:23;;;;;;;0.93;0.60;;;;;;;17.57;56.77;97425.03;10327640;28;20401;-23
2022/04/29 02:43:24;;;;;;;1.07;0.70;;;;;;;17.56;57.23;97424.16;10326887;28;20034;-23
2022/04/29 02:48:24;;;;;;;1.20;1.10;;;;;;;17.57;58.43;97422.50;10327544;28;20744;-22
2022/04/29 02:53:25;;;;;;;1.15;1.02;;;;;;;17.59;58.42;97416.59;10328259;28;20030;-22
2022/04/29 02:58:25;;;;;;;1.08;0.80;;;;;;;17.57;58.54;97412.38;10327036;28;20045;-23
2022/04/29 03:03:27;;;;;;;1.00;0.90;;;;;;;17.58;57.48;97414.06;10326721;28;20030;-21
2022/04/29 03:08:28;;;;;;;1.83;0.90;;;;;;;17.54;56.88;97412.28;10367660;28;20040;-22
2022/04/29 03:13:28;;;;;;;0.90;0.90;;;;;;;17.57;56.91;97407.31;10336439;28;20038;-23
2022/04/29 03:18:37;;;;;;;0.93;0.77;;;;;;;17.57;57.49;97407.31;10330050;28;20029;-23
2022/04/29 03:23:37;;;;;;;0.85;0.75;;;;;;;17.56;57.05;97403.06;10366570;28;20033;-22
2022/04/29 03:28:38;;;;;;;0.70;0.70;;;;;;;17.55;57.68;97408.94;10333136;28;20034;-22
2022/04/29 03:33:38;;;;;;;0.97;0.80;;;;;;;17.55;56.81;97407.25;10326749;28;20192;-22
2022/04/29 03:38:38;;;;;;;0.73;0.70;;;;;;;17.56;57.84;97415.72;10358475;28;20571;-22
2022/04/29 03:43:40;;;;;;;1.10;1.00;;;;;;;17.49;57.13;97398.75;10340942;28;20041;-22
2022/04/29 03:54:24;;;;;;;1.50;1.00;;;;;;;17.59;58.51;97415.75;10352155;28;20042;-21
2022/04/29 03:59:32;;;;;;;1.73;0.80;;;;;;;17.61;58.40;97414.09;10325444;28;20519;-22
2022/04/29 04:04:33;;;;;;;1.10;1.00;;;;;;;17.61;57.91;97409.03;10323968;28;20031;-22
2022/04/29 04:09:35;;;;;;;0.95;0.90;;;;;;;17.60;57.83;97410.72;10330073;28;20253;-24
2022/04/29 04:14:39;;;;;;;0.93;0.80;;;;;;;17.62;57.70;97425.91;10325272;28;20113;-21
2022/04/29 04:19:40;;;;;;;0.98;0.88;;;;;;;17.60;57.95;97417.47;10343688;28;20034;-23
2022/04/29 04:24:40;;;;;;;2.38;0.90;;;;;;;17.63;58.29;97425.09;10338028;28;20029;-23
2022/04/29 04:29:41;;;;;;;3.40;0.97;;;;;;;17.63;57.92;97425.97;10381895;28;20041;-23
2022/04/29 04:34:50;;;;;;;1.35;1.02;;;;;;;17.64;57.71;97430.19;10365043;28;20312;-22
2022/04/29 04:39:52;;;;;;;1.00;0.90;;;;;;;17.65;57.40;97431.88;10370237;28;20022;-21
2022/04/29 04:44:54;;;;;;;3.35;1.65;;;;;;;17.47;53.81;97433.28;10365391;28;20066;-23
2022/04/29 04:49:56;;;;;;;2.47;1.85;;;;;;;17.32;52.92;97430.50;10348480;28;20397;-22
2022/04/29 04:55:06;;;;;;;2.93;1.47;;;;;;;17.28;53.65;97431.28;10330114;28;20036;-23
2022/04/29 05:00:09;;;;;;;1.38;1.27;;;;;;;17.28;54.96;97423.69;10329596;28;20042;-21
2022/04/29 05:05:35;;;;;;;4.38;2.28;;;;;;;16.81;51.04;97425.41;10333318;28;20499;-23
2022/04/29 05:10:43;;;;;;;5.57;2.40;;;;;;;16.96;52.50;97424.81;10375656;28;20038;-22
2022/04/29 05:15:44;;;;;;;4.60;2.30;;;;;;;16.93;52.06;97427.31;10330255;28;20504;-21
2022/04/29 05:20:55;;;;;;;2.85;2.58;;;;;;;16.79;51.89;97411.91;10329983;28;20038;-23
2022/04/29 05:25:56;;;;;;;2.80;2.53;;;;;;;16.84;51.51;97422.94;10329911;28;20030;-23
2022/04/29 05:31:15;;;;;;;4.20;2.58;;;;;;;16.87;51.13;97430.59;10331441;28;20046;-22
2022/04/29 05:36:35;;;;;;;2.58;2.08;;;;;;;16.92;51.21;97428.13;10331499;28;20054;-22
2022/04/29 05:47:14;;;;;;;4.10;2.33;;;;;;;16.91;50.64;97424.75;10329829;28;20496;-23
2022/04/29 05:52:14;;;;;;;2.78;2.45;;;;;;;16.75;50.93;97419.41;10329238;28;20044;-21
2022/04/29 05:57:19;;;;;;;3.05;2.75;;;;;;;16.76;50.75;97426.16;10329520;28;20034;-22
2022/04/29 06:02:23;;;;;;;3.38;2.72;;;;;;;16.99;50.47;97429.97;10328468;28;20034;-22
2022/04/29 06:07:32;;;;;;;5.70;2.78;;;;;;;17.06;50.34;97426.72;10366647;28;20033;-23
2022/04/29 06:12:43;;;;;;;2.78;2.53;;;;;;;16.95;50.32;97428.19;10365331;28;20134;-22
2022/04/29 06:17:51;;;;;;;5.07;2.85;;;;;;;16.93;50.72;97429.84;10358170;28;20026;-22
2022/04/29 06:23:10;;;;;;;2.92;2.47;;;;;;;16.96;50.83;97429.88;10362521;28;20046;-23
2022/04/29 06:28:14;;;;;;;3.08;2.40;;;;;;;16.91;50.57;97418.84;10362367;28;20034;-23
2022/04/29 06:33:16;;;;;;;4.65;2.40;;;;;;;16.97;50.93;97424.00;10327000;28;20034;-22
2022/04/29 06:38:19;;;;;;;13.00;3.72;;;;;;;17.03;51.39;97434.22;10340659;28;20117;-22
2022/04/29 06:43:39;;;;;;;3.42;2.17;;;;;;;17.03;51.23;97430.03;10335114;28;20173;-22
2022/04/29 06:48:58;;;;;;;2.72;2.40;;;;;;;17.04;50.99;97426.69;10328962;28;20186;-22
2022/04/29 06:54:17;;;;;;;3.90;2.30;;;;;;;16.89;51.06;97400.28;10361029;28;20095;-22
2022/04/29 06:59:22;;;;;;;2.47;2.17;;;;;;;17.06;50.85;97419.13;10328035;28;20080;-22
2022/04/29 07:04:27;;;;;;;5.43;2.78;;;;;;;17.06;51.37;97427.53;10326198;28;20103;-23
2022/04/29 07:09:28;;;;;;;6.75;2.53;;;;;;;17.21;51.12;97420.22;10328192;28;20033;-21
2022/04/29 07:14:47;;;;;;;7.57;2.10;;;;;;;17.35;52.33;97410.31;10327625;28;20042;-21
2022/04/29 07:19:50;;;;;;;3.15;2.30;;;;;;;17.39;52.57;97407.88;10363256;28;20154;-23
2022/04/29 07:24:51;;;;;;;3.58;1.95;;;;;;;17.39;51.32;97401.94;10357804;28;20509;-21
2022/04/29 07:29:52;;;;;;;3.70;2.42;;;;;;;17.39;51.27;97407.00;10325186;28;20073;-22
2022/04/29 07:45:40;;;;;;;6.57;3.42;;;;;;;17.39;51.64;97390.16;10325840;28;20030;-21
2022/04/29 07:51:09;;;;;;;3.45;2.50;;;;;;;17.37;51.64;97390.94;10346700;28;20038;-22
2022/04/29 07:56:10;;;;;;;3.63;2.40;;;;;;;17.39;51.60;97390.16;10357199;28;20038;-22
2022/04/29 08:01:12;;;;;;;4.15;2.30;;;;;;;17.38;53.22;97387.59;10334306;28;20289;-22
2022/04/29 08:06:16;;;;;;;4.05;2.40;;;;;;;17.17;52.83;97377.94;10348896;28;20038;-22
2022/04/29 08:11:17;;;;;;;3.25;2.25;;;;;;;17.15;52.00;97376.25;10359722;28;20037;-22
2022/04/29 08:16:37;;;;;;;2.08;1.83;;;;;;;17.37;52.85;97380.81;10334481;28;20464;-22
2022/04/29 08:21:42;;;;;;;3.05;2.60;;;;;;;17.43;52.58;97380.94;10349344;28;20034;-22
2022/04/29 08:26:42;;;;;;;3.33;2.30;;;;;;;17.44;51.73;97375.03;10349091;28;20501;-21
2022/04/29 08:31:43;;;;;;;3.60;2.00;;;;;;;17.45;51.72;97374.19;10332854;28;20288;-23
2022/04/29 08:36:44;;;;;;;3.33;2.17;;;;;;;17.48;52.02;97371.72;10332470;28;20034;-22
2022/04/29 08:41:45;;;;;;;1.73;1.63;;;;;;;17.36;51.85;97371.53;10333440;28;20034;-21
2022/04/29 08:46:50;;;;;;;2.95;2.00;;;;;;;17.47;52.22;97364.94;10331710;28;20400;-22
2022/04/29 08:52:20;;;;;;;2.95;2.13;;;;;;;17.48;52.00;97371.72;10327553;28;20070;-22
2022/04/29 09:02:40;;;;;;;2.92;2.03;;;;;;;17.37;51.90;97360.56;10332575;28;20437;-22
2022/04/29 09:07:52;;;;;;;10.63;2.42;;;;;;;17.43;53.01;97371.66;10331859;28;20050;-22
2022/04/29 09:12:53;;;;;;;4.95;2.20;;;;;;;17.41;52.41;97375.00;10350833;28;20037;-22
2022/04/29 09:17:53;;;;;;;4.78;2.30;;;;;;;17.50;55.03;97370.06;10369820;28;20416;-22
2022/04/29 09:22:57;;;;;;;4.60;2.03;;;;;;;17.55;56.64;97369.28;10373735;28;20037;-21
2022/04/29 09:28:16;;;;;;;7.72;2.20;;;;;;;17.53;53.05;97362.50;10363156;28;20034;-22
2022/04/29 09:33:40;;;;;;;4.38;2.17;;;;;;;17.24;53.00;97356.97;10367982;28;20050;-22
2022/04/29 09:39:27;;;;;;;1.90;1.70;;;;;;;17.22;52.41;97370.44;10384126;28;20041;-21
2022/04/29 09:44:28;;;;;;;2.78;2.47;;;;;;;17.05;52.37;97357.53;10372430;28;20087;-24
2022/04/29 09:49:28;;;;;;;3.55;2.28;;;;;;;17.19;51.06;97350.16;10377137;28;20029;-21
2022/04/29 09:54:31;;;;;;;3.60;2.83;;;;;;;17.27;50.89;97346.06;10385306;28;20030;-21
2022/04/29 09:59:45;;;;;;;5.32;2.47;;;;;;;17.11;51.98;97346.66;10390392;28;20287;-21
2022/04/29 10:04:47;;;;;;;2.95;1.90;;;;;;;17.11;51.71;97339.06;10374259;28;20501;-21
2022/04/29 10:09:52;;;;;;;6.72;2.53;;;;;;;17.05;52.13;97338.97;10375410;28;20123;-24
2022/04/29 10:14:59;;;;;;;8.77;2.83;;;;;;;17.12;51.49;97340.75;10364061;28;20084;-22
2022/04/29 10:25:42;;;;;;;7.37;2.90;;;;;;;17.21;51.20;97335.84;10363400;28;20398;-21
2022/04/29 10:30:43;;;;;;;2.58;2.38;;;;;;;17.20;50.81;97329.09;10334981;28;20456;-23
2022/04/29 10:35:49;;;;;;;3.65;2.50;;;;;;;16.94;51.47;97332.91;10364437;28;20084;-22
2022/04/29 10:41:12;;;;;;;3.03;2.55;;;;;;;16.97;51.87;97332.94;10358846;28;20086;-25
2022/04/29 10:46:22;;;;;;;3.00;2.20;;;;;;;16.93;51.30;97328.66;10350523;28;20042;-23
2022/04/29 10:51:59;;;;;;;4.05;2.63;;;;;;;16.96;51.82;97313.53;10366877;28;20595;-22
2022/04/29 10:57:15;;;;;;;3.55;3.05;;;;;;;16.90;50.62;97313.47;10352637;28;20287;-21
2022/04/29 11:02:27;;;;;;;4.10;2.55;;;;;;;16.89;51.59;97311.75;10367336;28;20070;-22
2022/04/29 11:07:39;;;;;;;5.10;2.80;;;;;;;16.97;50.96;97300.06;10354477;28;20081;-23
2022/04/29 11:12:58;;;;;;;4.57;2.72;;;;;;;17.07;50.80;97304.44;10360664;28;20033;-24
2022/04/29 11:18:23;;;;;;;4.63;2.55;;;;;;;16.94;50.94;97305.94;10367766;28;20034;-22
2022/04/29 11:28:54;;;;;;;5.28;2.60;;;;;;;16.94;51.51;97300.03;10360744;28;20519;-23
2022/04/29 11:34:26;;;;;;;3.78;2.92;;;;;;;17.14;50.74;97298.66;10361009;28;20523;-22
2022/04/29 11:39:33;;;;;;;5.10;2.87;;;;;;;16.97;51.13;97292.47;10366646;28;20045;-22
2022/04/29 11:44:35;;;;;;;3.63;2.97;;;;;;;16.99;50.82;97293.38;10362328;28;20034;-21
2022/04/29 11:49:35;;;;;;;3.13;2.50;;;;;;;16.94;50.43;97292.44;10367982;28;20073;-23
2022/04/29 11:54:48;;;;;;;3.37;2.47;;;;;;;16.91;50.43;97284.81;10383103;28;20112;-22
2022/04/29 11:59:48;;;;;;;5.45;2.63;;;;;;;16.92;50.44;97286.50;10355611;28;20059;-21
2022/04/29 12:05:02;;;;;;;3.97;2.15;;;;;;;16.98;50.13;97268.91;10379742;28;20424;-22
2022/04/29 12:10:18;;;;;;;2.60;2.17;;;;;;;17.12;50.81;97264.88;10362472;28;20061;-22
2022/04/29 12:15:20;;;;;;;4.57;2.33;;;;;;;17.02;50.60;97274.03;10359071;28;20064;-24
2022/04/29 12:20:20;;;;;;;4.78;2.55;;;;;;;17.01;50.89;97274.00;10380604;28;20056;-22
2022/04/29 12:25:22;;;;;;;6.33;2.40;;;;;;;16.96;51.35;97273.06;10339564;28;20041;-21
2022/04/29 12:35:45;;;;;;;3.38;2.55;;;;;;;17.21;51.30;97265.00;10325799;28;20041;-22
2022/04/29 12:40:46;;;;;;;2.70;2.50;;;;;;;17.17;50.86;97266.63;10327721;28;20515;-22
2022/04/29 12:45:46;;;;;;;2.83;2.50;;;;;;;17.11;50.63;97263.16;10333555;28;20034;-24
2022/04/29 12:50:56;;;;;;;3.85;2.72;;;;;;;17.10;50.87;97264.88;10333472;28;20066;-22
2022/04/29 12:55:56;;;;;;;3.60;2.60;;;;;;;17.14;51.39;97265.75;10343567;28;20120;-22
2022/04/29 13:01:03;;;;;;;3.33;2.80;;;;;;;17.03;51.33;97262.22;10372186;28;20034;-21
2022/04/29 13:06:08;;;;;;;4.25;2.45;;;;;;;17.03;51.86;97259.69;10337191;28;20208;-22
2022/04/29 13:11:16;;;;;;;3.38;2.60;;;;;;;16.95;51.65;97251.13;10330304;28;20041;-22
2022/04/29 13:16:18;;;;;;;3.53;2.40;;;;;;;17.01;51.29;97243.63;10337845;28;20269;-23
2022/04/29 13:21:18;;;;;;;3.72;3.13;;;;;;;16.98;51.31;97241.09;10332491;28;20136;-24
2022/04/29 13:26:22;;;;;;;3.45;2.30;;;;;;;16.92;52.22;97230.88;10348134;28;20165;-22
2022/04/29 13:31:22;;;;;;;4.37;3.07;;;;;;;16.97;51.29;97229.22;10344186;28;20033;-23
2022/04/29 13:36:23;;;;;;;2.83;2.40;;;;;;;17.17;53.47;97222.78;10370454;28;20037;-23
2022/04/29 13:41:23;;;;;;;2.90;2.58;;;;;;;17.26;52.36;97220.38;10355674;28;20157;-23
2022/04/29 13:46:24;;;;;;;3.23;2.73;;;;;;;17.30;51.65;97219.56;10361758;28;20037;-23
2022/04/29 13:51:24;;;;;;;3.10;2.30;;;;;;;17.17;51.54;97225.31;10349026;28;21342;-24
2022/04/29 13:56:25;;;;;;;8.33;2.80;;;;;;;16.89;51.88;97197.97;10351417;28;20092;-24
2022/04/29 14:01:25;;;;;;;5.17;3.13;;;;;;;17.10;51.54;97210.88;10355187;28;20037;-23
2022/04/29 14:06:25;;;;;;;3.80;2.53;;;;;;;16.99;51.74;97202.31;10353100;28;20296;-23
2022/04/29 14:11:26;;;;;;;5.50;3.17;;;;;;;17.06;51.45;97216.75;10360797;28;20798;-23
2022/04/29 14:16:26;;;;;;;3.83;2.70;;;;;;;17.15;52.06;97224.44;10358402;28;20041;-22
2022/04/29 14:21:27;;;;;;;3.17;2.58;;;;;;;17.07;51.72;97223.50;10352078;28;20081;-24
2022/04/29 14:26:27;;;;;;;3.67;2.60;;;;;;;17.08;51.56;97218.44;10359984;28;20034;-24
2022/04/29 14:31:30;;;;;;;4.15;2.70;;;;;;;17.09;51.51;97221.84;10363081;28;20045;-23
2022/04/29 14:36:32;;;;;;;8.30;3.25;;;;;;;17.32;53.81;97218.75;10362145;28;20680;-22
2022/04/29 14:41:33;;;;;;;4.60;2.50;;;;;;;17.35;52.84;97220.47;10360202;28;20038;-22
2022/04/29 14:46:33;;;;;;;4.15;2.55;;;;;;;17.37;52.36;97222.25;10356822;28;20042;-22
2022/04/29 14:51:33;;;;;;;3.33;2.80;;;;;;;17.30;52.02;97217.03;10361572;28;20034;-23
2022/04/29 14:56:34;;;;;;;3.05;2.67;;;;;;;17.33;51.90;97214.56;10355798;28;20036;-21
2022/04/29 15:01:35;;;;;;;4.15;2.45;;;;;;;17.34;52.53;97214.56;10354804;28;20454;-21
2022/04/29 15:06:36;;;;;;;4.37;2.83;;;;;;;17.33;52.38;97214.56;10361918;28;20053;-24
2022/04/29 15:16:57;;;;;;;2.25;2.05;;;;;;;17.23;52.58;97207.69;10354257;28;20040;-22
2022/04/29 15:21:57;;;;;;;3.00;2.15;;;;;;;17.25;52.57;97206.03;10357850;28;20040;-23
2022/04/29 15:26:58;;;;;;;3.10;2.43;;;;;;;17.24;52.22;97204.31;10360916;28;20045;-22
2022/04/29 15:31:58;;;;;;;3.42;2.78;;;;;;;17.24;52.55;97199.25;10357964;28;20161;-23
2022/04/29 15:37:00;;;;;;;3.23;2.20;;;;;;;17.23;52.56;97207.69;10361849;28;20429;-25
2022/04/29 15:42:03;;;;;;;2.22;2.03;;;;;;;17.23;52.71;97197.56;10354453;28;20301;-25
2022/04/29 15:47:04;;;;;;;6.40;2.70;;;;;;;17.37;54.10;97196.06;10360739;28;20069;-22
2022/04/29 15:52:04;;;;;;;6.63;2.85;;;;;;;17.44;52.99;97197.84;10351938;28;20121;-24
2022/04/29 15:57:07;;;;;;;3.45;2.25;;;;;;;17.29;52.74;97193.41;10347657;28;20041;-24
2022/04/29 16:02:07;;;;;;;3.10;2.38;;;;;;;17.30;52.38;97199.31;10361498;28;20088;-24
2022/04/29 16:07:07;;;;;;;2.45;2.25;;;;;;;17.16;52.87;97180.59;10345833;28;20080;-23
2022/04/29 16:12:10;;;;;;;3.80;2.55;;;;;;;17.23;52.53;97197.56;10337765;28;20042;-23
2022/04/29 16:17:10;;;;;;;2.70;2.42;;;;;;;17.15;53.00;97199.16;10349227;28;20026;-23
2022/04/29 16:22:11;;;;;;;3.88;2.53;;;;;;;17.11;53.20;97200.78;10333620;28;20244;-21
2022/04/29 16:27:11;;;;;;;4.05;2.50;;;;;;;17.11;53.03;97195.72;10333244;28;20053;-21
2022/04/29 16:32:12;;;;;;;2.97;2.78;;;;;;;17.02;53.42;97192.22;10332261;28;20034;-23
2022/04/29 16:37:13;;;;;;;3.10;2.80;;;;;;;17.07;53.47;97186.38;10345281;28;20076;-23
2022/04/29 16:42:13;;;;;;;2.87;2.43;;;;;;;17.09;53.30;97191.47;10360518;28;20064;-22
2022/04/29 16:47:13;;;;;;;2.40;2.20;;;;;;;17.05;53.49;97182.13;10360996;28;20297;-23
2022/04/29 16:52:14;;;;;;;2.93;2.73;;;;;;;17.14;52.90;97177.22;10332330;28;20390;-24
2022/04/29 17:02:34;;;;;;;3.50;2.35;;;;;;;17.17;53.03;97174.72;10369327;28;20045;-22
2022/04/29 17:07:34;;;;;;;2.92;2.65;;;;;;;17.06;52.87;97172.03;10346948;28;20122;-24
2022/04/29 17:12:35;;;;;;;2.90;2.60;;;;;;;17.00;53.12;97153.41;10348159;28;20408;-22
2022/04/29 17:17:36;;;;;;;4.82;2.70;;;;;;;16.98;53.58;97163.50;10347008;28;20519;-23
2022/04/29 17:22:36;;;;;;;6.13;3.05;;;;;;;16.99;53.41;97182.91;10331312;28;20025;-23
2022/04/29 17:27:38;;;;;;;5.28;2.55;;;;;;;16.99;53.24;97182.06;10360998;28;20026;-22
2022/04/29 17:32:38;;;;;;;3.60;2.55;;;;;;;16.95;53.34;97176.13;10372497;28;20026;-22
2022/04/29 17:37:39;;;;;;;2.47;2.28;;;;;;;16.87;53.56;97161.66;10382783;28;20033;-23
2022/04/29 17:42:39;;;;;;;2.83;2.50;;;;;;;16.88;53.51;97168.41;10375293;28;20044;-22
2022/04/29 17:47:40;;;;;;;3.10;2.70;;;;;;;16.82;53.77;97179.31;10387032;28;20116;-22
2022/04/29 17:52:41;;;;;;;4.03;3.35;;;;;;;16.93;53.82;97176.94;10380811;28;20034;-23
2022/04/29 17:57:43;;;;;;;2.90;2.42;;;;;;;17.05;53.22;97172.00;10373552;28;20304;-22
2022/04/29 18:02:45;;;;;;;5.40;3.00;;;;;;;16.89;53.78;97177.72;10395086;28;20073;-24
2022/04/29 18:07:45;;;;;;;3.22;2.63;;;;;;;16.81;53.47;97177.59;10379282;28;20029;-25
2022/04/29 18:12:46;;;;;;;3.97;3.28;;;;;;;16.76;53.67;97185.97;10356939;28;20030;-23
2022/04/29 18:17:48;;;;;;;3.92;3.20;;;;;;;16.75;54.17;97191.84;10345904;28;20029;-22
2022/04/29 18:22:50;;;;;;;4.25;2.92;;;;;;;16.73;54.38;97192.66;10341620;28;20575;-23
2022/04/29 18:27:50;;;;;;;3.80;2.80;;;;;;;16.72;54.18;97194.34;10356131;28;20038;-22
2022/04/29 18:32:51;;;;;;;5.73;3.13;;;;;;;16.67;54.09;97188.38;10371675;28;20041;-24
2022/04/29 18:37:52;;;;;;;5.72;3.20;;;;;;;16.98;53.43;97205.66;10352505;28;20343;-22
2022/04/29 18:42:53;;;;;;;5.18;3.17;;;;;;;17.15;52.78;97212.63;10358317;28;20080;-23
2022/04/29 18:47:53;;;;;;;6.68;3.33;;;;;;;17.22;52.83;97205.97;10364350;28;20037;-23
2022/04/29 18:52:54;;;;;;;10.32;3.33;;;;;;;17.35;54.78;97213.75;10327252;28;20065;-22
2022/04/29 18:57:54;;;;;;;4.70;2.55;;;;;;;17.49;56.47;97216.47;10369001;28;20060;-23
2022/04/29 19:02:55;;;;;;;4.10;2.95;;;;;;;17.53;56.24;97220.72;10364302;28;20044;-22
2022/04/29 19:07:55;;;;;;;4.23;2.87;;;;;;;17.44;53.66;97223.16;10333855;28;20048;-22
2022/04/29 19:12:55;;;;;;;3.13;2.70;;;;;;;17.39;53.25;97219.69;10338643;28;20096;-22
2022/04/29 19:17:56;;;;;;;3.00;2.70;;;;;;;17.33;52.88;97219.63;10328300;28;20509;-22
2022/04/29 19:22:56;;;;;;;3.47;2.20;;;;;;;17.37;53.06;97226.44;10359826;28;20488;-22
2022/04/29 19:27:56;;;;;;;2.87;2.47;;;;;;;17.37;53.10;97231.50;10340558;28;20031;-22
2022/04/29 19:32:57;;;;;;;2.50;2.30;;;;;;;17.36;53.16;97229.81;10356262;28;20401;-23
2022/04/29 19:37:59;;;;;;;4.57;2.80;;;;;;;17.35;53.20;97220.47;10345280;28;20045;-23
2022/04/29 19:42:59;;;;;;;2.90;2.60;;;;;;;17.36;53.26;97215.47;10353997;28;20038;-22
2022/04/29 19:48:00;;;;;;;4.13;2.67;;;;;;;17.36;53.10;97214.63;10354406;28;20491;-21
2022/04/29 19:53:01;;;;;;;2.97;2.63;;;;;;;17.38;53.22;97218.00;10352354;28;20479;-23
2022/04/29 20:08:52;;;;;;;10.18;2.88;;;;;;;17.57;56.10;97235.13;10380421;28;20137;-23
2022/04/29 20:13:55;;;;;;;3.00;2.40;;;;;;;17.45;53.94;97225.72;10370518;28;20097;-22
2022/04/29 20:18:57;;;;;;;2.40;2.20;;;;;;;17.45;53.48;97234.97;10356959;28;20292;-23
2022/04/29 20:23:58;;;;;;;2.40;2.20;;;;;;;17.44;53.51;97241.72;10370860;28;20030;-22
2022/04/29 20:29:00;;;;;;;2.65;2.30;;;;;;;17.44;53.42;97235.81;10335965;28;20437;-23
2022/04/29 20:34:02;;;;;;;3.25;2.20;;;;;;;17.46;53.11;97234.13;10373646;28;20076;-23
2022/04/29 20:39:03;;;;;;;2.60;2.17;;;;;;;17.46;53.62;97231.59;10368934;28;20042;-21
2022/04/29 20:44:04;;;;;;;2.30;2.10;;;;;;;17.45;53.03;97227.38;10366987;28;20033;-23
2022/04/29 20:49:06;;;;;;;2.63;1.80;;;;;;;17.46;53.14;97231.59;10363776;28;20037;-23
2022/04/29 20:54:06;;;;;;;2.25;2.13;;;;;;;17.39;53.05;97215.50;10338660;28;20311;-22
2022/04/29 20:59:06;;;;;;;3.07;2.40;;;;;;;17.53;56.53;97223.25;10375988;28;20041;-23
2022/04/29 21:04:07;;;;;;;6.10;2.70;;;;;;;17.62;57.21;97233.50;10368036;28;20285;-23
2022/04/29 21:09:07;;;;;;;4.40;2.27;;;;;;;17.61;56.98;97232.66;10330721;28;20525;-23
2022/04/29 21:14:07;;;;;;;2.33;2.07;;;;;;;17.53;53.59;97226.66;10363304;28;20030;-24
2022/04/29 21:19:08;;;;;;;3.37;2.40;;;;;;;17.50;53.43;97223.22;10359384;28;20125;-23
2022/04/29 21:24:08;;;;;;;2.37;2.10;;;;;;;17.49;53.21;97214.78;10327710;28;20791;-23
2022/04/29 21:34:27;;;;;;;4.25;2.60;;;;;;;17.48;53.42;97199.59;10367640;28;20408;-23
2022/04/29 21:39:28;;;;;;;3.13;2.20;;;;;;;17.43;53.71;97183.50;10358646;28;20053;-22
2022/04/29 21:44:28;;;;;;;4.07;1.83;;;;;;;17.48;53.72;97197.88;10369298;28;20037;-23
2022/04/29 21:49:28;;;;;;;2.53;2.33;;;;;;;17.50;53.74;97200.44;10353566;28;20130;-23
2022/04/29 21:54:32;;;;;;;2.53;2.13;;;;;;;17.48;53.71;97200.44;10330535;28;20042;-22
2022/04/29 21:59:32;;;;;;;3.75;2.40;;;;;;;17.41;53.74;97182.63;10369014;28;20034;-22
2022/04/29 22:04:34;;;;;;;3.42;2.30;;;;;;;17.62;57.39;97190.44;10364856;28;20037;-23
2022/04/29 22:09:34;;;;;;;4.03;2.30;;;;;;;17.65;57.42;97198.09;10330419;28;20042;-22
2022/04/29 22:14:35;;;;;;;2.47;1.92;;;;;;;17.52;56.00;97186.13;10328405;28;20038;-22
2022/04/29 22:19:35;;;;;;;3.30;2.00;;;;;;;17.52;54.21;97191.19;10347152;28;20037;-22
2022/04/29 22:24:36;;;;;;;2.20;1.95;;;;;;;17.49;54.06;97184.41;10358928;28;20366;-24
2022/04/29 22:29:36;;;;;;;3.80;1.97;;;;;;;17.49;53.84;97186.09;10331740;28;20027;-23
2022/04/29 22:34:37;;;;;;;2.25;1.85;;;;;;;17.44;53.63;97177.59;10367188;28;20037;-22
2022/04/29 22:39:39;;;;;;;3.40;2.50;;;;;;;17.47;53.68;97177.63;10328624;28;20308;-22
2022/04/29 22:44:39;;;;;;;2.47;2.10;;;;;;;17.47;53.80;97175.94;10328214;28;20297;-21
2022/04/29 22:49:41;;;;;;;3.75;2.50;;;;;;;17.45;53.92;97175.09;10328861;28;20035;-22
2022/04/29 22:54:41;;;;;;;2.83;2.10;;;;;;;17.47;53.86;97177.63;10328738;28;20030;-21
2022/04/29 22:59:42;;;;;;;2.25;2.00;;;;;;;17.47;54.01;97177.63;10328357;28;20521;-23
2022/04/29 23:04:42;;;;;;;2.90;1.97;;;;;;;17.57;57.36;97172.69;10327460;28;20038;-21
2022/04/29 23:09:43;;;;;;;2.73;2.10;;;;;;;17.64;57.30;97166.84;10328046;28;20065;-23
2022/04/29 23:14:45;;;;;;;3.67;1.98;;;;;;;17.58;57.42;97160.88;10327507;28;20058;-22
2022/04/29 23:19:48;;;;;;;3.60;1.98;;;;;;;17.54;54.51;97175.19;10347223;28;20049;-22
2022/04/29 23:24:49;;;;;;;2.13;1.83;;;;;;;17.50;54.25;97167.53;10366415;28;20576;-22
2022/04/29 23:29:49;;;;;;;3.38;2.20;;;;;;;17.48;53.77;97169.22;10331466;28;20037;-22
2022/04/29 23:34:50;;;;;;;2.23;2.03;;;;;;;17.48;53.90;97159.91;10366584;28;20030;-22
2022/04/29 23:39:51;;;;;;;2.75;2.10;;;;;;;17.46;54.22;97156.53;10365127;28;20561;-22
2022/04/29 23:44:52;;;;;;;2.35;1.73;;;;;;;17.45;54.11;97143.84;10326636;28;20072;-23
2022/04/29 23:49:54;;;;;;;1.83;1.73;;;;;;;17.47;53.73;97147.22;10326434;28;20055;-23
2022/04/29 23:54:54;;;;;;;1.95;1.80;;;;;;;17.48;53.99;97151.50;10326347;28;20405;-22
2022/04/29 23:59:55;;;;;;;3.13;2.27;;;;;;;17.46;53.97;97140.47;10327660;28;20045;-21
